createdAt,value
2023-04-23T00:02:15.874Z,68.00
2023-04-23T00:04:50.795Z,68.17
2023-04-23T00:07:20.041Z,68.07
2023-04-23T00:09:47.373Z,68.10
2023-04-23T00:12:14.812Z,68.07
2023-04-23T00:14:42.038Z,68.21
2023-04-23T00:17:08.989Z,68.27
2023-04-23T00:19:36.010Z,68.44
2023-04-23T00:22:03.243Z,68.60
2023-04-23T00:24:32.085Z,68.40
2023-04-23T00:26:58.956Z,68.28
2023-04-23T00:29:25.730Z,68.00
2023-04-23T00:31:52.520Z,68.18
2023-04-23T00:34:19.332Z,68.37
2023-04-23T00:36:45.993Z,68.24
2023-04-23T00:39:12.745Z,68.39
2023-04-23T00:41:41.910Z,68.51
2023-04-23T00:44:12.167Z,68.68
2023-04-23T00:46:39.002Z,68.53
2023-04-23T00:49:06.842Z,68.31
2023-04-23T00:51:33.502Z,68.43
2023-04-23T00:54:00.384Z,68.63
2023-04-23T00:56:28.237Z,68.33
2023-04-23T00:58:55.332Z,68.54
2023-04-23T01:01:22.212Z,68.82
2023-04-23T01:03:50.188Z,68.66
2023-04-23T01:06:17.636Z,68.69
2023-04-23T01:08:47.053Z,68.98
2023-04-23T01:11:15.026Z,68.94
2023-04-23T01:13:43.032Z,69.20
2023-04-23T01:16:11.696Z,69.12
2023-04-23T01:18:41.241Z,69.12
2023-04-23T01:21:15.254Z,69.24
2023-04-23T01:23:42.201Z,69.04
2023-04-23T01:26:10.910Z,69.36
2023-04-23T01:28:38.169Z,69.31
2023-04-23T01:31:05.297Z,69.33
2023-04-23T01:33:32.101Z,69.34
2023-04-23T01:36:00.147Z,69.42
2023-04-23T01:38:28.797Z,69.11
2023-04-23T01:40:55.456Z,69.38
2023-04-23T01:43:25.008Z,69.08
2023-04-23T01:45:53.052Z,69.25
2023-04-23T01:48:20.128Z,69.27
2023-04-23T01:50:47.068Z,69.47
2023-04-23T01:53:14.010Z,69.53
2023-04-23T01:55:41.423Z,69.51
2023-04-23T01:58:08.437Z,69.63
2023-04-23T02:00:35.220Z,69.62
2023-04-23T02:03:02.042Z,69.43
2023-04-23T02:05:29.763Z,69.47
2023-04-23T02:07:57.353Z,69.62
2023-04-23T02:10:24.067Z,69.68
2023-04-23T02:12:50.789Z,69.49
2023-04-23T02:15:18.196Z,69.69
2023-04-23T02:17:44.906Z,69.72
2023-04-23T02:20:12.568Z,70.01
2023-04-23T02:22:42.210Z,69.86
2023-04-23T02:25:09.668Z,70.19
2023-04-23T02:27:36.777Z,70.48
2023-04-23T02:30:04.597Z,70.04
2023-04-23T02:32:31.493Z,70.15
2023-04-23T02:34:59.814Z,70.19
2023-04-23T02:37:27.230Z,70.21
2023-04-23T02:39:54.429Z,70.42
2023-04-23T02:42:21.208Z,70.43
2023-04-23T02:44:47.883Z,70.52
2023-04-23T02:47:14.777Z,70.82
2023-04-23T02:49:41.437Z,70.52
2023-04-23T02:52:08.249Z,70.60
2023-04-23T02:54:37.262Z,70.34
2023-04-23T02:57:05.248Z,70.43
2023-04-23T02:59:32.335Z,70.48
2023-04-23T03:01:59.263Z,70.57
2023-04-23T03:04:26.277Z,70.64
2023-04-23T03:06:52.940Z,70.75
2023-04-23T03:09:19.829Z,70.71
2023-04-23T03:11:46.546Z,70.82
2023-04-23T03:14:13.236Z,70.54
2023-04-23T03:16:40.044Z,70.94
2023-04-23T03:19:06.795Z,70.78
2023-04-23T03:21:33.472Z,71.17
2023-04-23T03:24:00.474Z,71.08
2023-04-23T03:26:27.119Z,71.31
2023-04-23T03:28:54.156Z,71.27
2023-04-23T03:31:22.278Z,71.44
2023-04-23T03:33:49.002Z,71.20
2023-04-23T03:36:24.012Z,71.19
2023-04-23T03:38:50.639Z,71.33
2023-04-23T03:41:17.301Z,71.05
2023-04-23T03:43:44.196Z,71.09
2023-04-23T03:46:10.932Z,71.11
2023-04-23T03:48:37.608Z,71.11
2023-04-23T03:51:04.516Z,71.02
2023-04-23T03:53:31.163Z,71.09
2023-04-23T03:55:57.984Z,71.01
2023-04-23T03:58:24.794Z,70.90
2023-04-23T04:00:51.825Z,70.81
2023-04-23T04:03:18.660Z,70.61
2023-04-23T04:05:45.643Z,70.79
2023-04-23T04:08:12.394Z,70.55
2023-04-23T04:10:39.117Z,70.62
2023-04-23T04:13:05.814Z,69.81
2023-04-23T04:15:33.269Z,69.08
2023-04-23T04:18:01.474Z,68.43
2023-04-23T04:20:31.148Z,67.19
2023-04-23T04:22:57.922Z,66.14
2023-04-23T04:25:24.718Z,64.97
2023-04-23T04:27:51.367Z,64.02
2023-04-23T04:30:18.871Z,63.33
2023-04-23T04:32:46.633Z,62.61
2023-04-23T04:35:14.664Z,62.03
2023-04-23T04:37:42.077Z,60.98
2023-04-23T04:40:11.682Z,59.85
2023-04-23T04:42:39.690Z,58.76
2023-04-23T04:45:08.861Z,58.62
2023-04-23T04:47:36.708Z,57.70
2023-04-23T04:50:04.500Z,56.98
2023-04-23T04:52:31.883Z,56.57
2023-04-23T04:54:58.923Z,56.20
2023-04-23T04:57:25.838Z,55.62
2023-04-23T04:59:52.652Z,54.13
2023-04-23T05:02:20.368Z,53.74
2023-04-23T05:04:47.199Z,53.09
2023-04-23T05:07:13.918Z,53.29
2023-04-23T05:09:42.949Z,52.78
2023-04-23T05:12:11.138Z,52.50
2023-04-23T05:14:37.891Z,51.75
2023-04-23T05:17:04.670Z,51.29
2023-04-23T05:19:32.498Z,50.80
2023-04-23T05:21:59.249Z,50.49
2023-04-23T05:24:26.592Z,50.58
2023-04-23T05:26:53.220Z,50.83
2023-04-23T05:29:19.944Z,51.22
2023-04-23T05:31:46.848Z,51.43
2023-04-23T05:34:13.508Z,51.71
2023-04-23T05:36:40.451Z,51.38
2023-04-23T05:39:07.128Z,50.32
2023-04-23T05:41:34.275Z,50.36
2023-04-23T05:44:01.289Z,50.85
2023-04-23T05:46:28.259Z,50.24
2023-04-23T05:48:54.996Z,50.35
2023-04-23T05:51:22.790Z,49.16
2023-04-23T05:53:49.594Z,49.35
2023-04-23T05:56:17.312Z,49.21
2023-04-23T05:58:44.163Z,49.12
2023-04-23T06:01:10.888Z,48.36
2023-04-23T06:03:38.094Z,48.79
2023-04-23T06:06:05.035Z,48.60
2023-04-23T06:08:31.795Z,48.48
2023-04-23T06:10:58.917Z,48.18
2023-04-23T06:13:25.882Z,48.04
2023-04-23T06:15:52.729Z,47.34
2023-04-23T06:18:19.438Z,46.40
2023-04-23T06:20:48.736Z,45.46
2023-04-23T06:23:15.992Z,45.53
2023-04-23T06:25:42.720Z,45.58
2023-04-23T06:28:09.366Z,44.54
2023-04-23T06:30:36.253Z,44.04
2023-04-23T06:33:02.990Z,45.22
2023-04-23T06:35:31.408Z,43.36
2023-04-23T06:37:58.239Z,43.17
2023-04-23T06:40:25.159Z,43.15
2023-04-23T06:42:51.922Z,42.81
2023-04-23T06:45:18.916Z,42.44
2023-04-23T06:47:45.778Z,40.89
2023-04-23T06:50:12.762Z,40.42
2023-04-23T06:52:41.207Z,40.40
2023-04-23T06:55:09.096Z,39.82
2023-04-23T06:57:36.272Z,38.22
2023-04-23T07:00:03.674Z,38.36
2023-04-23T07:02:32.580Z,38.29
2023-04-23T07:04:59.288Z,37.59
2023-04-23T07:07:26.333Z,37.46
2023-04-23T07:09:53.130Z,37.01
2023-04-23T07:12:20.057Z,37.32
2023-04-23T07:14:47.662Z,37.54
2023-04-23T07:17:23.495Z,37.07
2023-04-23T07:19:53.781Z,36.04
2023-04-23T07:22:20.591Z,35.06
2023-04-23T07:24:47.253Z,35.49
2023-04-23T07:27:14.015Z,35.57
2023-04-23T07:29:40.646Z,34.77
2023-04-23T07:32:07.434Z,34.94
2023-04-23T07:34:35.476Z,35.95
2023-04-23T07:37:03.604Z,35.15
2023-04-23T07:39:30.336Z,35.08
2023-04-23T07:41:57.206Z,35.84
2023-04-23T07:44:23.822Z,34.64
2023-04-23T07:46:51.226Z,35.34
2023-04-23T07:49:18.105Z,34.29
2023-04-23T07:51:45.994Z,34.26
2023-04-23T07:54:12.698Z,33.86
2023-04-23T07:56:40.521Z,33.97
2023-04-23T07:59:09.977Z,33.71
2023-04-23T08:01:36.781Z,34.45
2023-04-23T08:04:03.954Z,34.17
2023-04-23T08:06:33.777Z,33.47
2023-04-23T08:09:06.716Z,32.89
2023-04-23T08:11:39.850Z,33.52
2023-04-23T08:14:08.775Z,33.31
2023-04-23T08:16:38.655Z,32.95
2023-04-23T08:19:10.061Z,32.43
2023-04-23T08:21:42.045Z,31.69
2023-04-23T08:24:09.170Z,32.15
2023-04-23T08:26:36.291Z,31.76
2023-04-23T08:29:11.495Z,31.88
2023-04-23T08:31:38.428Z,30.19
2023-04-23T08:34:05.197Z,29.57
2023-04-23T08:36:34.884Z,30.91
2023-04-23T08:39:01.764Z,30.19
2023-04-23T08:41:39.933Z,30.16
2023-04-23T08:44:12.281Z,30.28
2023-04-23T08:46:43.656Z,30.17
2023-04-23T08:49:19.012Z,29.49
2023-04-23T08:52:00.272Z,29.90
2023-04-23T08:54:28.725Z,29.56
2023-04-23T08:56:57.722Z,29.88
2023-04-23T08:59:30.971Z,30.86
2023-04-23T09:01:57.949Z,31.96
2023-04-23T09:04:26.308Z,32.46
2023-04-23T09:06:53.016Z,32.54
2023-04-23T09:09:23.909Z,32.53
2023-04-23T09:11:52.254Z,30.71
2023-04-23T09:14:22.764Z,30.00
2023-04-23T09:16:51.331Z,30.25
2023-04-23T09:19:19.495Z,32.62
2023-04-23T09:21:47.043Z,31.56
2023-04-23T09:24:15.117Z,32.52
2023-04-23T09:26:59.944Z,32.02
2023-04-23T09:29:27.086Z,30.55
2023-04-23T09:32:08.450Z,31.40
2023-04-23T09:34:40.158Z,31.84
2023-04-23T09:37:11.682Z,31.01
2023-04-23T09:39:39.864Z,30.71
2023-04-23T09:42:08.626Z,31.31
2023-04-23T09:44:35.474Z,31.48
2023-04-23T09:47:15.415Z,30.07
2023-04-23T09:49:49.501Z,31.15
2023-04-23T09:52:17.135Z,30.73
2023-04-23T09:54:46.901Z,31.83
2023-04-23T09:57:13.575Z,31.33
2023-04-23T10:02:13.087Z,31.59
2023-04-23T10:04:40.324Z,31.94
2023-04-23T10:07:18.841Z,32.08
2023-04-23T10:09:47.507Z,29.94
2023-04-23T10:14:46.976Z,30.63
2023-04-23T10:17:14.133Z,29.95
2023-04-23T10:19:43.799Z,30.63
2023-04-23T10:22:19.299Z,30.93
2023-04-23T10:24:51.808Z,29.82
2023-04-23T10:29:50.042Z,31.04
2023-04-23T10:32:18.603Z,30.56
2023-04-23T10:34:45.778Z,29.77
2023-04-23T10:37:13.634Z,29.94
2023-04-23T10:39:44.510Z,28.91
2023-04-23T10:42:13.645Z,29.20
2023-04-23T10:47:17.644Z,27.69
2023-04-23T10:49:44.917Z,28.59
2023-04-23T10:52:20.685Z,28.68
2023-04-23T10:54:50.351Z,27.40
2023-04-23T10:57:17.008Z,28.35
2023-04-23T10:59:59.153Z,27.72
2023-04-23T11:02:26.279Z,27.51
2023-04-23T11:04:58.509Z,28.13
2023-04-23T11:07:33.439Z,29.37
2023-04-23T11:10:10.909Z,29.75
2023-04-23T11:12:40.042Z,30.51
2023-04-23T11:15:19.102Z,30.17
2023-04-23T11:17:47.611Z,29.12
2023-04-23T11:20:15.795Z,30.22
2023-04-23T11:22:44.078Z,29.38
2023-04-23T11:25:12.868Z,29.86
2023-04-23T11:27:44.399Z,28.91
2023-04-23T11:30:16.584Z,28.38
2023-04-23T11:32:50.024Z,30.01
2023-04-23T11:35:19.026Z,29.95
2023-04-23T11:37:48.466Z,29.89
2023-04-23T11:40:19.791Z,29.36
2023-04-23T11:42:51.162Z,29.66
2023-04-23T11:45:24.718Z,29.65
2023-04-23T11:47:59.425Z,29.64
2023-04-23T11:50:30.171Z,29.91
2023-04-23T11:52:57.356Z,29.52
2023-04-23T11:55:24.756Z,28.80
2023-04-23T11:57:53.432Z,28.44
2023-04-23T12:00:25.384Z,28.13
2023-04-23T12:02:52.967Z,27.87
2023-04-23T12:05:21.712Z,27.97
2023-04-23T12:07:52.139Z,27.92
2023-04-23T12:10:23.356Z,27.28
2023-04-23T12:12:53.621Z,26.95
2023-04-23T12:15:21.063Z,27.23
2023-04-23T12:17:51.937Z,27.54
2023-04-23T12:20:22.208Z,26.96
2023-04-23T12:22:49.048Z,27.33
2023-04-23T12:25:16.222Z,27.36
2023-04-23T12:27:45.425Z,26.43
2023-04-23T12:30:12.448Z,26.40
2023-04-23T12:32:39.302Z,26.35
2023-04-23T12:35:06.746Z,27.12
2023-04-23T12:37:36.820Z,27.48
2023-04-23T12:40:07.810Z,27.31
2023-04-23T12:42:35.373Z,26.71
2023-04-23T12:45:08.099Z,26.78
2023-04-23T12:47:35.239Z,26.87
2023-04-23T12:50:04.061Z,26.48
2023-04-23T12:52:31.414Z,26.32
2023-04-23T12:55:00.639Z,26.65
2023-04-23T12:57:28.132Z,27.11
2023-04-23T12:59:55.292Z,27.28
2023-04-23T13:02:22.896Z,27.87
2023-04-23T13:04:49.672Z,27.74
2023-04-23T13:07:16.388Z,28.08
2023-04-23T13:09:43.399Z,27.53
2023-04-23T13:12:10.779Z,27.77
2023-04-23T13:14:37.633Z,27.84
2023-04-23T13:17:04.308Z,27.84
2023-04-23T13:19:32.513Z,28.00
2023-04-23T13:21:59.236Z,27.89
2023-04-23T13:24:25.918Z,27.53
2023-04-23T13:26:52.727Z,27.29
2023-04-23T13:29:19.479Z,27.64
2023-04-23T13:31:46.200Z,27.03
2023-04-23T13:34:12.990Z,27.00
2023-04-23T13:36:41.692Z,27.33
2023-04-23T13:39:13.296Z,26.99
2023-04-23T13:41:43.072Z,26.64
2023-04-23T13:44:09.908Z,26.72
2023-04-23T13:46:36.770Z,26.45
2023-04-23T13:49:03.698Z,26.55
2023-04-23T13:51:35.720Z,26.73
2023-04-23T13:54:03.658Z,27.30
2023-04-23T13:56:31.364Z,27.73
2023-04-23T14:01:33.570Z,26.88
2023-04-23T14:04:00.416Z,26.20
2023-04-23T14:06:28.219Z,26.93
2023-04-23T14:08:55.146Z,27.03
2023-04-23T14:11:22.824Z,27.01
2023-04-23T14:13:49.798Z,26.77
2023-04-23T14:16:17.729Z,27.17
2023-04-23T14:18:44.606Z,27.10
2023-04-23T14:21:15.670Z,27.04
2023-04-23T14:23:45.772Z,26.99
2023-04-23T14:26:22.886Z,27.15
2023-04-23T14:28:52.220Z,26.72
2023-04-23T14:31:19.028Z,27.09
2023-04-23T14:33:45.754Z,26.99
2023-04-23T14:36:12.536Z,26.96
2023-04-23T14:42:17.784Z,26.81
2023-04-23T14:48:21.939Z,27.27
2023-04-23T14:54:25.937Z,27.18
2023-04-23T15:00:29.575Z,27.47
2023-04-23T15:06:50.304Z,28.00
2023-04-23T15:13:01.635Z,26.95
2023-04-23T15:19:06.819Z,27.39
2023-04-23T15:25:11.655Z,26.84
2023-04-23T15:31:15.159Z,27.54
2023-04-23T15:40:56.899Z,28.04
2023-04-23T15:44:20.306Z,28.24
2023-04-23T15:50:26.845Z,29.02
2023-04-23T15:56:30.669Z,28.87
2023-04-23T16:02:34.809Z,28.89
2023-04-23T16:05:58.129Z,28.79
2023-04-23T16:08:24.907Z,29.16
2023-04-23T16:10:51.612Z,29.02
2023-04-23T16:13:18.426Z,29.39
2023-04-23T16:15:45.778Z,29.76
2023-04-23T16:18:13.687Z,30.19
2023-04-23T16:20:40.680Z,30.32
2023-04-23T16:23:07.734Z,30.15
2023-04-23T16:25:34.923Z,30.55
2023-04-23T16:28:01.867Z,30.58
2023-04-23T16:30:28.664Z,31.10
2023-04-23T16:32:55.567Z,31.58
2023-04-23T16:35:22.640Z,32.08
2023-04-23T16:37:49.552Z,32.22
2023-04-23T16:40:19.514Z,32.82
2023-04-23T16:42:48.832Z,33.19
2023-04-23T16:45:15.835Z,33.04
2023-04-23T16:47:43.887Z,33.07
2023-04-23T16:50:12.761Z,33.05
2023-04-23T16:52:39.516Z,33.68
2023-04-23T16:55:07.348Z,34.35
2023-04-23T16:57:37.669Z,35.34
2023-04-23T17:00:08.302Z,36.05
2023-04-23T17:02:45.528Z,36.47
2023-04-23T17:05:12.482Z,36.45
2023-04-23T17:07:40.929Z,36.75
2023-04-23T17:10:08.776Z,37.58
2023-04-23T17:12:35.653Z,37.60
2023-04-23T17:15:02.322Z,37.92
2023-04-23T17:17:29.243Z,38.43
2023-04-23T17:19:56.383Z,39.13
2023-04-23T17:22:26.009Z,39.89
2023-04-23T17:25:08.864Z,40.56
2023-04-23T17:27:49.034Z,40.68
2023-04-23T17:30:16.928Z,41.02
2023-04-23T17:33:07.510Z,41.59
2023-04-23T17:35:34.331Z,41.89
2023-04-23T17:38:01.570Z,42.06
2023-04-23T17:40:28.313Z,42.79
2023-04-23T17:42:55.388Z,42.99
2023-04-23T17:45:22.166Z,43.44
2023-04-23T17:47:48.961Z,43.72
2023-04-23T17:50:16.025Z,43.81
2023-04-23T17:52:44.392Z,43.50
2023-04-23T17:55:11.823Z,43.88
2023-04-23T17:57:38.660Z,44.16
2023-04-23T18:00:10.104Z,44.99
2023-04-23T18:02:40.684Z,45.08
2023-04-23T18:05:09.319Z,45.18
2023-04-23T18:07:37.354Z,45.28
2023-04-23T18:10:05.301Z,46.08
2023-04-23T18:12:32.361Z,46.71
2023-04-23T18:15:02.137Z,47.31
2023-04-23T18:17:28.959Z,46.99
2023-04-23T18:19:56.037Z,47.47
2023-04-23T18:22:23.041Z,47.44
2023-04-23T18:24:50.735Z,47.38
2023-04-23T18:27:18.172Z,47.48
2023-04-23T18:29:45.557Z,47.48
2023-04-23T18:32:20.882Z,48.05
2023-04-23T18:34:54.815Z,48.13
2023-04-23T18:37:41.817Z,48.38
2023-04-23T18:40:09.416Z,48.56
2023-04-23T18:42:36.196Z,48.98
2023-04-23T18:45:05.727Z,49.37
2023-04-23T18:47:38.559Z,49.73
2023-04-23T18:50:10.516Z,49.93
2023-04-23T18:52:37.236Z,50.04
2023-04-23T18:55:04.049Z,50.44
2023-04-23T18:57:30.783Z,50.48
2023-04-23T18:59:57.476Z,50.38
2023-04-23T19:05:01.280Z,50.30
2023-04-23T19:07:28.254Z,50.96
2023-04-23T19:09:55.026Z,51.31
2023-04-23T19:12:22.056Z,51.62
2023-04-23T19:14:48.769Z,52.09
2023-04-23T19:17:18.665Z,52.41
2023-04-23T19:19:46.307Z,52.34
2023-04-23T19:22:13.116Z,52.60
2023-04-23T19:24:40.996Z,52.56
2023-04-23T19:27:07.752Z,52.86
2023-04-23T19:29:34.539Z,52.78
2023-04-23T19:32:01.329Z,52.64
2023-04-23T19:34:28.016Z,52.59
2023-04-23T19:36:54.745Z,52.74
2023-04-23T19:40:00.772Z,52.48
2023-04-23T19:42:32.658Z,52.61
2023-04-23T19:45:00.439Z,52.67
2023-04-23T19:47:29.711Z,52.54
2023-04-23T19:49:56.906Z,52.70
2023-04-23T19:55:42.607Z,52.90
2023-04-23T19:58:16.278Z,53.59
2023-04-23T20:00:54.024Z,54.06
2023-04-23T20:03:21.374Z,54.69
2023-04-23T20:06:10.417Z,55.09
2023-04-23T20:09:08.444Z,55.61
2023-04-23T20:11:38.781Z,55.52
2023-04-23T20:14:09.618Z,55.89
2023-04-23T20:17:14.744Z,55.95
2023-04-23T20:19:51.515Z,56.10
2023-04-23T20:22:20.020Z,56.31
2023-04-23T20:24:50.813Z,56.42
2023-04-23T20:27:21.530Z,56.37
2023-04-23T20:29:51.634Z,56.15
2023-04-23T20:32:24.481Z,56.25
2023-04-23T20:34:52.823Z,56.04
2023-04-23T20:37:21.750Z,56.07
2023-04-23T20:39:50.106Z,56.37
2023-04-23T20:42:19.825Z,56.68
2023-04-23T20:44:50.579Z,56.98
2023-04-23T20:47:17.969Z,57.55
2023-04-23T20:49:48.882Z,58.01
2023-04-23T20:52:15.764Z,58.03
2023-04-23T20:54:45.779Z,58.20
2023-04-23T20:57:12.441Z,58.42
2023-04-23T20:59:39.164Z,58.61
2023-04-23T21:02:08.720Z,58.58
2023-04-23T21:04:37.016Z,58.74
2023-04-23T21:07:05.316Z,58.90
2023-04-23T21:09:32.137Z,59.06
2023-04-23T21:11:59.523Z,59.08
2023-04-23T21:14:29.344Z,59.55
2023-04-23T21:17:01.178Z,59.58
2023-04-23T21:19:29.933Z,60.26
2023-04-23T21:22:37.221Z,60.18
2023-04-23T21:25:04.412Z,60.18
2023-04-23T21:27:31.631Z,60.41
2023-04-23T21:30:06.208Z,60.36
2023-04-23T21:32:33.174Z,60.21
2023-04-23T21:34:59.880Z,60.61
2023-04-23T21:37:26.493Z,60.89
2023-04-23T21:39:53.213Z,61.05
2023-04-23T21:42:21.809Z,60.85
2023-04-23T21:44:48.468Z,60.79
2023-04-23T21:47:15.400Z,60.70
2023-04-23T21:49:43.661Z,60.79
2023-04-23T21:52:10.611Z,60.72
2023-04-23T21:54:37.454Z,60.87
2023-04-23T21:57:04.113Z,61.00
2023-04-23T21:59:36.765Z,61.14
2023-04-23T22:02:09.550Z,61.02
2023-04-23T22:04:36.757Z,60.86
2023-04-23T22:07:05.717Z,60.81
2023-04-23T22:09:32.528Z,60.89
2023-04-23T22:12:02.384Z,60.57
2023-04-23T22:14:29.641Z,61.11
2023-04-23T22:16:58.825Z,61.43
2023-04-23T22:19:26.261Z,61.72
2023-04-23T22:21:52.984Z,61.80
2023-04-23T22:24:19.741Z,61.96
2023-04-23T22:26:47.338Z,61.90
2023-04-23T22:29:14.133Z,62.19
2023-04-23T22:31:41.048Z,62.17
2023-04-23T22:34:08.131Z,62.36
2023-04-23T22:36:36.041Z,62.33
2023-04-23T22:39:04.779Z,62.52
2023-04-23T22:41:33.930Z,62.35
2023-04-23T22:44:01.236Z,62.28
2023-04-23T22:46:29.015Z,62.34
2023-04-23T22:48:55.856Z,62.39
2023-04-23T22:51:22.528Z,62.51
2023-04-23T22:53:49.178Z,62.41
2023-04-23T22:56:15.965Z,62.60
2023-04-23T22:58:42.671Z,62.63
2023-04-23T23:01:09.476Z,62.70
2023-04-23T23:03:36.504Z,63.03
2023-04-23T23:06:03.431Z,63.38
2023-04-23T23:08:30.087Z,63.61
2023-04-23T23:10:56.988Z,63.66
2023-04-23T23:13:23.694Z,63.67
2023-04-23T23:15:50.549Z,63.79
2023-04-23T23:18:17.717Z,63.67
2023-04-23T23:20:45.351Z,63.91
2023-04-23T23:23:12.182Z,64.09
2023-04-23T23:25:39.046Z,64.19
2023-04-23T23:28:06.072Z,64.36
2023-04-23T23:30:32.746Z,64.58
2023-04-23T23:32:59.706Z,64.76
2023-04-23T23:35:26.364Z,64.77
2023-04-23T23:37:53.048Z,65.06
2023-04-23T23:40:20.003Z,65.19
2023-04-23T23:42:46.676Z,65.18
2023-04-23T23:45:13.542Z,65.19
2023-04-23T23:47:40.272Z,64.83
2023-04-23T23:50:07.543Z,65.17
2023-04-23T23:52:36.403Z,65.33
2023-04-23T23:55:03.230Z,65.45
2023-04-23T23:57:29.883Z,65.57
2023-04-23T23:59:57.212Z,65.94
